Quantum Of The Seas — C6BH8 — position and weather

sailwx.info

Track history (hours):
 
Tides and Currents Weather Stations Pressure Air Temp Water Temp Dewpoint Dewpoint Depression Visibility Wind Speed Wind Dir Waves Ship Positions

Quantum Of The Seas

Last reported at 2017-Apr-26 08:31 UTC. Time now 2017-Apr-27 18:52 UTC.
Position N 31°23' E 121°36'.

Length 348 m; draft 9 m.

Type: Passenger vessel. MMSI: 311000267.

Date/timePositionNaut miles runAvg speedWind from/ knotsBaromVisibWave heightAir tempDewpointWater temp
2017-Apr-26 08:31N 31°23' E 121°36'312.0
2017-Apr-26 08:17N 31°24' E 121°33'2 7.3
2017-Apr-26 08:00N 31°25' E 121°30'0 0.0
2017-Apr-26 07:23N 31°25' E 121°30'0 0.0
2017-Apr-26 06:23N 31°25' E 121°30'0 0.0
2017-Apr-26 05:53N 31°25' E 121°30'0 0.0
2017-Apr-26 05:29N 31°25' E 121°30'22 1.5
2017-Apr-25 14:52N 31°16' E 121°53'411.0
2017-Apr-25 14:30N 31°15' E 121°58'1111.2
2017-Apr-25 13:30N 31°11' E 122°10'612.5
2017-Apr-25 13:00N 31°08' E 122°16'612.4
2017-Apr-25 12:30N 31°06' E 122°23'5 9.8
2017-Apr-25 12:00N 31°07' E 122°29'510.7
2017-Apr-25 11:30N 31°12' E 122°31'815.3
2017-Apr-25 11:00N 31°19' E 122°32'612.3
2017-Apr-25 10:29N 31°22' E 122°39'715.0
2017-Apr-25 10:00N 31°24' E 122°47'917.2
2017-Apr-25 09:29N 31°25' E 122°57'  
Track history (hours):
 
Tides and Currents Weather Stations Pressure Air Temp Water Temp Dewpoint Dewpoint Depression Visibility Wind Speed Wind Dir Waves Ship Positions

Quantum Of The Seas

Last reported at 2017-Apr-26 08:31 UTC. Time now 2017-Apr-27 18:52 UTC.
Position N 31°23' E 121°36'.

Length 348 m; draft 9 m.

Type: Passenger vessel. MMSI: 311000267.

Date/timePositionNaut miles runAvg speedWind from/ knotsBaromVisibWave heightAir tempDewpointWater temp
2017-Apr-26 08:31N 31°23' E 121°36'312.0
2017-Apr-26 08:17N 31°24' E 121°33'2 7.3
2017-Apr-26 08:00N 31°25' E 121°30'0 0.0
2017-Apr-26 07:23N 31°25' E 121°30'0 0.0
2017-Apr-26 06:23N 31°25' E 121°30'0 0.0
2017-Apr-26 05:53N 31°25' E 121°30'0 0.0
2017-Apr-26 05:29N 31°25' E 121°30'22 1.5
2017-Apr-25 14:52N 31°16' E 121°53'411.0
2017-Apr-25 14:30N 31°15' E 121°58'1111.2
2017-Apr-25 13:30N 31°11' E 122°10'612.5
2017-Apr-25 13:00N 31°08' E 122°16'612.4
2017-Apr-25 12:30N 31°06' E 122°23'5 9.8
2017-Apr-25 12:00N 31°07' E 122°29'510.7
2017-Apr-25 11:30N 31°12' E 122°31'815.3
2017-Apr-25 11:00N 31°19' E 122°32'612.3
2017-Apr-25 10:29N 31°22' E 122°39'715.0
2017-Apr-25 10:00N 31°24' E 122°47'917.2
2017-Apr-25 09:29N 31°25' E 122°57'  

Dump ship's entire track history